X  Κλείσε Στοιχεία αεροπορικών μετεωρολογικών δεδομένων METAR        LYNI Nis Airport
θερμοκρασία
29°C θερμοκρασία
16°C Σημείο δρόσου
45% Υγρασία



Ανεμος
1 MPH
2 KM/H
0 M/S
1 KTS



-1°
VRB
Τρέχουσες συνθήκες

Mostly Sunny Κυρίως αίθριος
πίεση 1014 (hPa) - 29.93 (inHg)
Ορατότητα 6 (μίλι) - 10 (km)
Aεροδρόμιο
Κωδικός αεροδρομίου LYNI

Τοποθεσία: Nis Airport
Απόσταση: 63 (mi)

Metar:
METAR LYNI 150730Z VRB01KT CAVOK 29/16 Q1015 NOSIG

ώρα: 15-07-2024 09:30 CEST